Time;durP1;ratioP1;P1;durP2;ratioP2;P2;SDS_P1;SDS_P2;PMS_P1;PMS_P2;Temp;Humidity;BMP_temperature;BMP_pressure;BME280_temperature;BME280_humidity;BME280_pressure;Samples;Min_cycle;Max_cycle;Signal;HPM_P1;HPM_P2
2022/05/08 00:00:13;;;;;;;46.20;32.47;;;15.90;47.00;;;;;;4989862;28;20779;-73
2022/05/08 00:02:40;;;;;;;50.03;32.30;;;15.80;48.00;;;;;;4990526;28;20184;-73
2022/05/08 00:05:07;;;;;;;46.43;32.90;;;15.80;48.20;;;;;;4989589;28;20545;-73
2022/05/08 00:07:32;;;;;;;44.13;33.00;;;15.90;47.30;;;;;;4990967;28;20814;-73
2022/05/08 00:09:58;;;;;;;58.50;34.50;;;16.10;46.30;;;;;;4990490;28;20435;-73
2022/05/08 00:12:24;;;;;;;60.23;34.40;;;15.90;46.00;;;;;;4990177;28;20180;-72
2022/05/08 00:14:49;;;;;;;47.60;34.00;;;15.80;46.90;;;;;;4990525;28;20965;-73
2022/05/08 00:17:15;;;;;;;48.30;34.03;;;15.80;47.30;;;;;;4990495;28;20216;-73
2022/05/08 00:19:47;;;;;;;48.57;34.60;;;15.90;46.40;;;;;;4993172;28;20686;-73
2022/05/08 00:22:13;;;;;;;53.83;35.33;;;15.70;47.40;;;;;;4995540;28;20171;-73
2022/05/08 00:24:39;;;;;;;51.30;35.00;;;15.70;46.60;;;;;;4994650;28;20438;-73
2022/05/08 00:27:04;;;;;;;50.07;35.27;;;15.70;46.80;;;;;;4993615;28;20537;-73
2022/05/08 00:29:30;;;;;;;46.10;30.23;;;15.60;47.10;;;;;;4994166;28;20303;-74
2022/05/08 00:31:56;;;;;;;44.87;31.00;;;15.70;47.40;;;;;;4994949;28;20520;-72
2022/05/08 00:34:22;;;;;;;45.73;32.10;;;15.80;46.30;;;;;;4987323;28;20238;-74
2022/05/08 00:36:47;;;;;;;46.87;31.33;;;15.70;47.20;;;;;;4995803;28;20197;-74
2022/05/08 00:39:13;;;;;;;40.67;29.57;;;15.70;47.00;;;;;;4993711;28;20474;-73
2022/05/08 00:41:39;;;;;;;43.20;29.97;;;15.50;47.80;;;;;;4994126;28;20185;-73
2022/05/08 00:44:05;;;;;;;37.63;27.40;;;15.40;48.10;;;;;;4995340;28;20423;-73
2022/05/08 00:46:31;;;;;;;40.67;28.80;;;15.60;48.20;;;;;;4995507;28;20832;-73
2022/05/08 00:48:57;;;;;;;46.87;29.43;;;15.70;47.60;;;;;;4994265;28;20203;-72
2022/05/08 00:51:24;;;;;;;49.10;29.77;;;15.70;47.00;;;;;;4993704;28;20192;-73
2022/05/08 00:53:52;;;;;;;39.03;28.07;;;15.70;47.00;;;;;;4993569;28;20533;-74
2022/05/08 00:56:19;;;;;;;40.73;27.80;;;15.70;46.80;;;;;;4995255;28;20459;-73
2022/05/08 00:58:48;;;;;;;44.87;28.73;;;15.60;47.00;;;;;;4995272;28;21056;-73
2022/05/08 01:01:14;;;;;;;41.90;28.30;;;15.60;47.10;;;;;;4993375;28;20794;-73
2022/05/08 01:03:41;;;;;;;40.10;28.50;;;15.40;47.80;;;;;;4994691;28;20786;-73
2022/05/08 01:06:12;;;;;;;39.00;29.10;;;15.40;48.40;;;;;;4992941;28;20445;-73
2022/05/08 01:08:40;;;;;;;39.00;28.33;;;15.30;49.50;;;;;;4992993;28;20547;-73
2022/05/08 01:11:07;;;;;;;47.27;28.77;;;15.40;48.30;;;;;;4993663;28;20530;-72
2022/05/08 01:13:33;;;;;;;47.47;31.20;;;15.40;48.90;;;;;;4995015;28;21173;-73
2022/05/08 01:15:59;;;;;;;38.70;28.10;;;15.40;47.90;;;;;;4994455;28;20419;-73
2022/05/08 01:18:25;;;;;;;39.67;29.37;;;15.40;47.90;;;;;;4993447;28;20487;-72
2022/05/08 01:20:51;;;;;;;43.83;29.20;;;15.40;47.70;;;;;;4991237;28;20191;-73
2022/05/08 01:23:19;;;;;;;41.47;29.20;;;15.40;47.50;;;;;;4994438;28;20195;-73
2022/05/08 01:25:52;;;;;;;40.60;28.40;;;15.30;47.90;;;;;;4994381;28;20942;-74
2022/05/08 01:28:19;;;;;;;40.30;27.63;;;15.20;48.40;;;;;;4994860;28;20429;-73
2022/05/08 01:30:47;;;;;;;42.90;30.10;;;15.20;47.10;;;;;;4991425;28;20433;-73
2022/05/08 01:33:13;;;;;;;39.47;28.17;;;15.30;47.80;;;;;;4994352;28;20485;-73
2022/05/08 01:35:40;;;;;;;40.47;27.40;;;15.20;47.60;;;;;;4993328;28;20439;-73
2022/05/08 01:38:07;;;;;;;44.30;29.53;;;15.20;47.10;;;;;;4994382;28;20800;-73
2022/05/08 01:40:33;;;;;;;40.53;28.07;;;15.10;48.80;;;;;;4993849;28;20431;-73
2022/05/08 01:42:59;;;;;;;41.40;30.10;;;15.00;48.10;;;;;;4993283;28;20442;-74
2022/05/08 01:45:25;;;;;;;42.43;29.00;;;15.10;47.80;;;;;;4994329;28;20411;-73
2022/05/08 01:50:36;;;;;;;46.97;28.90;;;15.00;47.50;;;;;;4993766;28;20453;-73
2022/05/08 01:53:02;;;;;;;44.80;29.70;;;14.30;50.20;;;;;;4992859;28;20437;-73
2022/05/08 01:55:27;;;;;;;38.70;29.17;;;14.50;50.70;;;;;;4993099;28;20821;-73
2022/05/08 01:57:53;;;;;;;43.60;28.20;;;14.70;48.10;;;;;;4994031;28;20459;-73
2022/05/08 02:00:20;;;;;;;43.47;28.40;;;14.80;47.70;;;;;;4994344;28;20210;-74
2022/05/08 02:02:48;;;;;;;40.43;28.60;;;14.80;47.20;;;;;;4992091;28;20442;-73
2022/05/08 02:05:18;;;;;;;36.87;26.80;;;14.80;46.90;;;;;;4994044;28;20511;-73
2022/05/08 02:07:45;;;;;;;39.20;28.10;;;14.70;48.20;;;;;;4992067;28;20457;-74
2022/05/08 02:10:15;;;;;;;44.73;29.10;;;14.70;48.10;;;;;;4993824;28;20437;-73
2022/05/08 02:12:41;;;;;;;45.60;29.77;;;14.70;47.70;;;;;;4992788;28;20456;-73
2022/05/08 02:15:09;;;;;;;44.60;29.73;;;14.70;47.70;;;;;;4992744;28;20444;-73
2022/05/08 02:17:35;;;;;;;45.03;29.00;;;14.60;48.10;;;;;;4993743;28;20444;-73
2022/05/08 02:20:02;;;;;;;37.50;25.90;;;14.40;49.00;;;;;;4992562;28;20563;-72
2022/05/08 02:22:27;;;;;;;46.30;27.30;;;14.50;49.20;;;;;;4993107;28;20492;-73
2022/05/08 02:24:53;;;;;;;37.10;26.50;;;14.60;48.40;;;;;;4992855;28;20433;-74
2022/05/08 02:27:19;;;;;;;41.50;28.37;;;14.60;48.70;;;;;;4993599;28;20568;-72
2022/05/08 02:29:51;;;;;;;38.70;28.40;;;14.40;49.30;;;;;;4993440;28;20186;-73
2022/05/08 02:32:18;;;;;;;38.07;26.73;;;14.50;48.70;;;;;;4993298;28;20182;-73
2022/05/08 02:34:44;;;;;;;37.30;27.37;;;14.40;48.60;;;;;;4991095;28;20440;-74
2022/05/08 02:37:10;;;;;;;38.60;27.30;;;14.30;48.50;;;;;;4993304;28;20846;-73
2022/05/08 02:39:36;;;;;;;40.23;26.83;;;14.50;48.50;;;;;;4993210;28;20498;-73
2022/05/08 02:42:02;;;;;;;43.13;28.87;;;14.50;48.70;;;;;;4993126;28;20421;-73
2022/05/08 02:44:27;;;;;;;37.43;27.13;;;14.50;48.90;;;;;;4993068;28;20182;-73
2022/05/08 02:46:53;;;;;;;39.23;27.30;;;14.40;49.80;;;;;;4989258;28;20436;-72
2022/05/08 02:49:19;;;;;;;38.30;28.27;;;14.30;48.30;;;;;;4993273;28;20185;-75
2022/05/08 02:51:44;;;;;;;38.00;27.20;;;14.40;49.30;;;;;;4992587;28;20241;-73
2022/05/08 02:54:10;;;;;;;37.90;28.50;;;14.50;48.90;;;;;;4992597;28;20233;-73
2022/05/08 02:59:20;;;;;;;37.73;27.87;;;14.40;48.80;;;;;;4992055;28;20212;-73
2022/05/08 03:01:46;;;;;;;42.50;28.70;;;14.60;47.90;;;;;;4991961;28;20437;-73
2022/05/08 03:04:12;;;;;;;40.60;27.07;;;14.60;47.80;;;;;;4992857;28;20173;-74
2022/05/08 03:06:38;;;;;;;39.40;27.03;;;14.30;50.00;;;;;;4991609;28;20267;-73
2022/05/08 03:09:04;;;;;;;45.03;29.90;;;14.30;48.60;;;;;;4992661;28;20268;-73
2022/05/08 03:11:29;;;;;;;40.47;28.60;;;14.30;48.10;;;;;;4992781;28;20836;-73
2022/05/08 03:13:57;;;;;;;41.73;29.30;;;14.30;48.80;;;;;;4992601;28;20443;-74
2022/05/08 03:16:23;;;;;;;41.83;29.20;;;14.20;47.80;;;;;;4991946;28;20245;-73
2022/05/08 03:18:50;;;;;;;44.47;29.53;;;14.20;48.10;;;;;;4991185;28;20469;-73
2022/05/08 03:21:16;;;;;;;46.77;30.40;;;14.30;47.60;;;;;;4992399;28;20491;-73
2022/05/08 03:23:44;;;;;;;47.20;29.37;;;14.20;50.00;;;;;;4992230;28;21109;-73
2022/05/08 03:26:09;;;;;;;39.17;28.87;;;14.20;49.20;;;;;;4992429;28;20812;-73
2022/05/08 03:28:39;;;;;;;41.50;27.23;;;14.30;49.50;;;;;;4991252;28;20479;-73
2022/05/08 03:31:06;;;;;;;40.07;27.50;;;14.20;49.20;;;;;;4992084;28;20237;-73
2022/05/08 03:33:32;;;;;;;42.20;28.80;;;14.20;49.40;;;;;;4992104;28;20429;-73
2022/05/08 03:35:59;;;;;;;34.83;25.33;;;14.10;50.20;;;;;;4986265;28;20528;-74
2022/05/08 03:38:25;;;;;;;35.37;25.77;;;14.00;49.50;;;;;;4990796;28;20528;-74
2022/05/08 03:40:51;;;;;;;33.73;24.40;;;14.10;49.50;;;;;;4992130;28;20997;-74
2022/05/08 03:43:17;;;;;;;34.40;24.20;;;14.00;49.30;;;;;;4992277;28;20409;-73
2022/05/08 03:45:43;;;;;;;33.13;23.40;;;14.10;48.70;;;;;;4991233;28;20446;-73
2022/05/08 03:48:09;;;;;;;37.40;23.27;;;14.10;49.50;;;;;;4990577;28;20205;-73
2022/05/08 03:50:36;;;;;;;31.20;23.20;;;14.00;50.80;;;;;;4990946;28;20938;-72
2022/05/08 03:53:02;;;;;;;36.57;23.37;;;14.00;51.40;;;;;;4991203;28;20420;-73
2022/05/08 03:55:28;;;;;;;32.10;23.43;;;14.00;50.60;;;;;;4991836;28;20436;-74
2022/05/08 03:57:54;;;;;;;34.03;23.87;;;14.20;50.20;;;;;;4991790;28;20842;-73
2022/05/08 04:00:20;;;;;;;33.37;23.63;;;14.10;50.20;;;;;;4991026;28;20209;-73
2022/05/08 04:02:46;;;;;;;33.67;24.97;;;14.10;49.30;;;;;;4991602;28;20312;-72
2022/05/08 04:05:12;;;;;;;31.50;23.50;;;14.10;49.60;;;;;;4991669;28;20455;-72
2022/05/08 04:07:38;;;;;;;36.13;24.57;;;14.00;49.90;;;;;;4991870;28;20826;-72
2022/05/08 04:10:05;;;;;;;43.00;23.53;;;13.90;49.90;;;;;;4990599;28;20196;-73
2022/05/08 04:12:30;;;;;;;39.20;23.43;;;14.00;49.90;;;;;;4991904;28;20586;-74
2022/05/08 04:14:56;;;;;;;31.10;22.70;;;14.00;49.70;;;;;;4991780;28;20420;-73
2022/05/08 04:17:21;;;;;;;30.90;22.07;;;14.00;49.40;;;;;;4991719;28;20214;-73
2022/05/08 04:19:47;;;;;;;31.70;22.30;;;13.90;49.30;;;;;;4990611;28;20217;-73
2022/05/08 04:24:58;;;;;;;36.20;24.80;;;13.50;50.70;;;;;;4992039;28;20757;-73
2022/05/08 04:27:23;;;;;;;44.20;27.47;;;13.60;49.90;;;;;;4991144;28;20453;-74
2022/05/08 04:29:49;;;;;;;35.90;26.47;;;13.60;49.50;;;;;;4990796;28;20260;-73
2022/05/08 04:32:15;;;;;;;38.83;25.83;;;13.80;50.60;;;;;;4991173;28;20707;-72
2022/05/08 04:34:41;;;;;;;37.47;26.13;;;13.70;49.90;;;;;;4991715;28;20186;-73
2022/05/08 04:37:07;;;;;;;38.63;26.30;;;13.70;50.40;;;;;;4989550;28;20495;-73
2022/05/08 04:39:33;;;;;;;36.57;26.93;;;13.70;51.00;;;;;;4989771;28;20210;-73
2022/05/08 04:41:59;;;;;;;44.73;26.87;;;13.60;50.60;;;;;;4990893;28;20809;-73
2022/05/08 04:44:25;;;;;;;44.30;27.50;;;13.40;51.40;;;;;;4990568;28;20438;-72
2022/05/08 04:46:50;;;;;;;41.00;27.03;;;13.30;51.60;;;;;;4990203;28;20605;-73
2022/05/08 04:49:16;;;;;;;37.17;26.93;;;13.40;50.90;;;;;;4990273;28;20547;-73
2022/05/08 04:51:42;;;;;;;41.23;27.97;;;13.40;50.80;;;;;;4991356;28;20421;-73
2022/05/08 04:54:08;;;;;;;44.50;28.53;;;13.50;50.60;;;;;;4991575;28;20228;-73
2022/05/08 04:56:33;;;;;;;41.53;27.40;;;13.60;50.30;;;;;;4990592;28;20441;-74
2022/05/08 04:58:59;;;;;;;43.47;27.67;;;13.80;50.20;;;;;;4991271;28;20210;-76
2022/05/08 05:01:25;;;;;;;39.70;28.03;;;13.80;49.20;;;;;;4990586;28;20189;-73
2022/05/08 05:03:51;;;;;;;37.43;26.40;;;13.80;48.60;;;;;;4991393;28;20922;-79
2022/05/08 05:06:17;;;;;;;36.73;26.50;;;13.90;49.20;;;;;;4997035;28;20193;-77
2022/05/08 05:08:43;;;;;;;37.10;26.37;;;13.80;49.20;;;;;;4996647;28;20216;-77
2022/05/08 05:11:09;;;;;;;38.17;27.30;;;13.70;49.80;;;;;;4994218;28;20428;-78
2022/05/08 05:13:36;;;;;;;38.37;27.73;;;13.80;49.40;;;;;;4996876;28;20445;-75
2022/05/08 05:16:02;;;;;;;41.60;28.30;;;13.90;48.50;;;;;;4994839;28;20922;-75
2022/05/08 05:18:27;;;;;;;41.40;27.83;;;13.80;49.50;;;;;;4993714;28;20453;-74
2022/05/08 05:20:53;;;;;;;45.20;27.30;;;13.80;50.00;;;;;;4994106;28;20417;-75
2022/05/08 05:23:18;;;;;;;39.27;27.90;;;13.70;50.70;;;;;;4994825;28;20551;-75
2022/05/08 05:25:44;;;;;;;49.00;29.00;;;13.80;50.90;;;;;;4993645;28;20262;-76
2022/05/08 05:28:10;;;;;;;39.37;27.23;;;14.00;49.80;;;;;;4994562;28;20194;-75
2022/05/08 05:30:36;;;;;;;46.97;28.93;;;14.00;49.50;;;;;;4993538;28;21977;-75
2022/05/08 05:33:01;;;;;;;41.67;28.63;;;14.20;48.80;;;;;;4994105;28;20181;-74
2022/05/08 05:35:27;;;;;;;41.13;28.20;;;14.20;49.40;;;;;;4994811;28;20409;-76
2022/05/08 05:37:53;;;;;;;39.57;27.97;;;14.10;49.80;;;;;;4994358;28;20225;-76
2022/05/08 05:40:20;;;;;;;39.63;28.53;;;14.00;50.70;;;;;;4994443;28;20209;-75
2022/05/08 05:42:46;;;;;;;39.90;28.83;;;14.00;51.10;;;;;;4993071;28;20269;-75
2022/05/08 05:45:12;;;;;;;41.03;29.07;;;14.20;50.40;;;;;;4993750;28;20520;-75
2022/05/08 05:47:50;;;;;;;43.03;28.33;;;14.10;50.60;;;;;;4994328;28;20881;-75
2022/05/08 05:50:17;;;;;;;38.93;28.30;;;14.20;50.00;;;;;;4994383;28;20559;-75
2022/05/08 05:52:43;;;;;;;46.50;29.03;;;14.20;51.20;;;;;;4991828;28;20439;-75
2022/05/08 05:55:09;;;;;;;42.43;27.50;;;14.30;51.10;;;;;;4993461;28;20512;-76
2022/05/08 05:57:36;;;;;;;43.20;26.93;;;14.50;50.50;;;;;;4993369;28;20635;-75
2022/05/08 06:00:06;;;;;;;41.27;27.40;;;14.50;50.60;;;;;;4994583;28;20465;-75
2022/05/08 06:02:32;;;;;;;43.47;29.93;;;14.50;50.60;;;;;;4993239;28;20532;-75
2022/05/08 06:04:57;;;;;;;39.47;26.93;;;14.50;51.00;;;;;;4993581;28;21087;-75
2022/05/08 06:07:23;;;;;;;40.70;27.67;;;14.80;50.30;;;;;;4993997;28;20564;-76
2022/05/08 06:09:49;;;;;;;37.67;26.10;;;14.70;49.10;;;;;;4993705;28;20177;-76
2022/05/08 06:12:14;;;;;;;40.00;25.53;;;14.70;49.60;;;;;;4992767;28;20664;-75
2022/05/08 06:14:40;;;;;;;43.67;27.63;;;14.70;48.90;;;;;;4993106;28;20191;-75
2022/05/08 06:17:06;;;;;;;39.43;26.57;;;14.90;49.10;;;;;;4992420;28;20194;-75
2022/05/08 06:19:32;;;;;;;38.33;25.83;;;14.80;48.10;;;;;;4993455;28;20477;-76
2022/05/08 06:21:58;;;;;;;45.53;27.20;;;14.80;48.80;;;;;;4992970;28;20262;-75
2022/05/08 06:24:24;;;;;;;48.37;27.80;;;14.60;49.50;;;;;;4992312;28;20465;-76
2022/05/08 06:26:49;;;;;;;37.50;27.80;;;14.50;49.70;;;;;;4992934;28;20493;-75
2022/05/08 06:29:15;;;;;;;36.77;27.30;;;14.30;50.70;;;;;;4992374;28;20211;-76
2022/05/08 06:31:41;;;;;;;37.33;27.67;;;14.50;50.60;;;;;;4993060;28;20189;-76
2022/05/08 06:34:08;;;;;;;41.73;27.50;;;14.90;48.50;;;;;;4989155;28;20441;-76
2022/05/08 06:36:34;;;;;;;38.87;27.73;;;14.40;51.10;;;;;;4993259;28;20190;-76
2022/05/08 06:38:59;;;;;;;37.13;28.77;;;14.90;49.30;;;;;;4993384;28;20804;-76
2022/05/08 06:41:26;;;;;;;42.00;27.50;;;15.20;49.70;;;;;;4993299;28;20466;-75
2022/05/08 06:43:53;;;;;;;35.87;25.30;;;15.50;47.80;;;;;;4990810;28;20174;-76
2022/05/08 06:46:19;;;;;;;37.03;26.20;;;15.30;47.10;;;;;;4991465;28;20790;-75
2022/05/08 06:48:47;;;;;;;37.37;25.50;;;15.20;49.20;;;;;;4985085;28;20453;-78
2022/05/08 06:51:13;;;;;;;36.37;26.47;;;15.00;47.80;;;;;;4991878;28;20444;-75
2022/05/08 06:53:39;;;;;;;33.77;26.33;;;15.00;49.80;;;;;;4993347;28;20417;-76
2022/05/08 06:56:05;;;;;;;35.47;26.13;;;15.30;48.30;;;;;;4992964;28;20420;-76
2022/05/08 07:01:34;;;;;;;32.93;24.77;;;15.60;48.00;;;;;;4992756;28;20209;-75
2022/05/08 07:01:34;;;;;;;32.80;25.40;;;15.10;48.30;;;;;;4991774;28;20437;-76
2022/05/08 07:04:00;;;;;;;32.57;25.00;;;14.70;49.70;;;;;;4988817;28;20436;-76
2022/05/08 07:06:25;;;;;;;34.87;25.80;;;15.00;50.80;;;;;;4990236;28;20442;-77
2022/05/08 07:08:51;;;;;;;31.70;23.17;;;15.80;48.90;;;;;;4990240;28;20215;-83
2022/05/08 07:11:16;;;;;;;36.63;24.17;;;16.10;44.90;;;;;;4982401;28;20189;-77
2022/05/08 07:13:42;;;;;;;31.30;23.33;;;16.40;43.40;;;;;;4989422;28;20198;-78
2022/05/08 07:16:08;;;;;;;32.57;24.30;;;16.10;45.20;;;;;;4992673;28;20297;-77
2022/05/08 07:18:33;;;;;;;30.87;23.40;;;16.30;45.80;;;;;;4992098;28;20216;-77
2022/05/08 07:20:59;;;;;;;34.37;23.27;;;15.70;45.80;;;;;;4990426;28;20596;-76
2022/05/08 07:23:24;;;;;;;30.80;22.53;;;15.90;47.60;;;;;;4990723;28;20178;-79
2022/05/08 07:25:50;;;;;;;30.73;22.37;;;16.60;44.10;;;;;;4991784;28;20197;-76
2022/05/08 07:28:16;;;;;;;36.60;22.03;;;16.20;43.20;;;;;;4990939;28;20200;-80
2022/05/08 07:30:41;;;;;;;32.97;22.90;;;15.60;46.90;;;;;;4992368;28;20193;-76
2022/05/08 07:33:07;;;;;;;31.03;23.13;;;15.10;48.20;;;;;;4991199;28;20188;-77
2022/05/08 07:38:21;;;;;;;35.40;23.47;;;16.40;45.60;;;;;;4992280;28;20203;-74
2022/05/08 07:40:48;;;;;;;35.93;22.70;;;15.90;46.00;;;;;;4991202;28;20512;-74
2022/05/08 07:43:15;;;;;;;29.63;22.10;;;15.60;48.50;;;;;;4989709;28;20448;-74
2022/05/08 07:45:42;;;;;;;36.37;22.90;;;16.00;48.60;;;;;;4991805;28;20431;-73
2022/05/08 07:48:08;;;;;;;32.70;22.30;;;16.30;44.90;;;;;;4990245;28;20448;-74
2022/05/08 07:50:34;;;;;;;27.70;20.63;;;16.60;47.40;;;;;;4990403;28;20444;-74
2022/05/08 07:52:59;;;;;;;35.07;22.97;;;16.70;45.00;;;;;;4991297;28;20504;-74
2022/05/08 07:55:25;;;;;;;30.67;21.83;;;16.30;46.50;;;;;;4991822;28;20623;-74
2022/05/08 07:57:50;;;;;;;29.97;21.57;;;16.70;44.90;;;;;;4991692;28;20217;-74
2022/05/08 08:00:16;;;;;;;29.30;21.33;;;16.80;44.10;;;;;;4991702;28;20216;-74
2022/05/08 08:02:42;;;;;;;31.17;21.43;;;17.00;44.90;;;;;;4990872;28;20935;-74
2022/05/08 08:05:08;;;;;;;27.30;20.13;;;17.60;43.20;;;;;;4991940;28;20543;-74
2022/05/08 08:07:36;;;;;;;28.30;20.53;;;17.10;45.10;;;;;;4991811;28;20199;-74
2022/05/08 08:10:02;;;;;;;26.47;20.00;;;16.80;47.00;;;;;;4991815;28;20968;-74
2022/05/08 08:12:28;;;;;;;25.60;19.87;;;16.70;47.70;;;;;;4990999;28;20431;-74
2022/05/08 08:14:54;;;;;;;27.57;20.70;;;17.40;45.60;;;;;;4991367;28;20504;-75
2022/05/08 08:17:19;;;;;;;28.63;19.53;;;18.60;42.80;;;;;;4990960;28;20234;-74
2022/05/08 08:19:45;;;;;;;28.73;19.33;;;18.20;40.00;;;;;;4991790;28;20649;-74
2022/05/08 08:22:11;;;;;;;27.43;19.63;;;17.80;41.60;;;;;;4991381;28;20183;-74
2022/05/08 08:24:36;;;;;;;24.80;19.10;;;17.50;43.00;;;;;;4991514;28;20184;-75
2022/05/08 08:27:02;;;;;;;26.77;19.23;;;18.10;43.70;;;;;;4990959;28;20184;-74
2022/05/08 08:29:28;;;;;;;24.50;17.33;;;18.60;39.60;;;;;;4991293;28;20650;-75
2022/05/08 08:31:54;;;;;;;30.77;20.33;;;18.50;42.10;;;;;;4991350;28;20417;-75
2022/05/08 08:34:19;;;;;;;25.63;18.60;;;19.00;40.70;;;;;;4991435;28;20261;-74
2022/05/08 08:36:45;;;;;;;27.57;19.70;;;19.60;39.50;;;;;;4991637;28;20267;-75
2022/05/08 08:39:11;;;;;;;23.93;18.80;;;20.10;37.60;;;;;;4991391;28;20256;-75
2022/05/08 08:41:41;;;;;;;24.80;20.07;;;20.00;36.60;;;;;;4995359;28;20260;-75
2022/05/08 08:49:45;;;;;;;25.20;19.33;;;19.00;40.70;;;;;;4995091;28;20442;-75
2022/05/08 08:52:12;;;;;;;27.07;19.60;;;19.30;38.00;;;;;;4995102;28;20431;-74
2022/05/08 08:54:37;;;;;;;33.30;19.97;;;18.50;41.80;;;;;;4994759;28;20945;-74
2022/05/08 08:57:03;;;;;;;24.60;18.70;;;19.10;40.20;;;;;;4995011;28;20435;-74
2022/05/08 08:59:29;;;;;;;22.23;17.87;;;18.80;39.80;;;;;;4994985;28;20190;-75
2022/05/08 09:01:55;;;;;;;26.20;20.40;;;19.60;39.40;;;;;;4994914;28;20949;-74
2022/05/08 09:04:21;;;;;;;25.10;19.40;;;20.00;37.30;;;;;;4995052;28;20413;-75
2022/05/08 09:06:47;;;;;;;21.70;17.40;;;20.20;37.00;;;;;;4994704;28;20500;-75
2022/05/08 09:09:23;;;;;;;22.90;17.03;;;20.50;37.80;;;;;;4994707;28;20213;-74
2022/05/08 09:11:49;;;;;;;21.97;16.73;;;21.00;37.70;;;;;;4994702;28;20910;-75
2022/05/08 09:14:28;;;;;;;21.83;16.40;;;21.20;34.10;;;;;;4994114;28;20436;-75
2022/05/08 09:16:54;;;;;;;21.63;16.10;;;21.00;35.70;;;;;;4993156;28;20472;-74
2022/05/08 09:19:34;;;;;;;24.73;16.07;;;21.20;32.80;;;;;;4994641;28;20455;-75
2022/05/08 09:22:01;;;;;;;21.30;14.93;;;21.00;37.60;;;;;;4994566;28;20956;-75
2022/05/08 09:24:26;;;;;;;18.10;14.80;;;20.90;34.60;;;;;;4994323;28;20442;-75
2022/05/08 09:27:16;;;;;;;19.33;15.53;;;20.50;35.70;;;;;;4994325;28;20434;-75
2022/05/08 09:29:42;;;;;;;20.17;14.43;;;21.10;36.50;;;;;;4993422;28;20178;-75
2022/05/08 09:32:08;;;;;;;19.70;14.50;;;21.60;33.40;;;;;;4994660;28;20464;-75
2022/05/08 09:34:58;;;;;;;18.87;14.07;;;21.70;32.80;;;;;;4994468;28;20417;-75
2022/05/08 09:37:27;;;;;;;17.67;13.57;;;21.70;31.70;;;;;;4992843;28;20464;-75
2022/05/08 09:40:16;;;;;;;19.30;14.07;;;20.50;33.00;;;;;;4994468;28;20467;-75
2022/05/08 09:42:42;;;;;;;17.90;14.50;;;20.90;36.00;;;;;;4994104;28;20424;-75
2022/05/08 09:45:09;;;;;;;25.43;14.37;;;21.60;31.90;;;;;;4994298;28;20777;-75
2022/05/08 09:47:46;;;;;;;22.43;13.23;;;21.90;30.80;;;;;;4993195;28;20675;-75
2022/05/08 09:50:13;;;;;;;18.90;12.87;;;21.60;32.90;;;;;;4994133;28;20412;-74
2022/05/08 09:52:41;;;;;;;18.13;13.70;;;22.20;31.90;;;;;;4993006;28;20424;-75
2022/05/08 09:55:08;;;;;;;15.57;13.00;;;22.40;30.20;;;;;;4993824;28;20607;-75
2022/05/08 09:57:35;;;;;;;17.53;13.30;;;22.70;32.10;;;;;;4992281;28;20489;-75
2022/05/08 10:00:01;;;;;;;14.93;12.07;;;22.90;28.00;;;;;;4993444;28;20458;-75
2022/05/08 10:02:27;;;;;;;19.07;10.97;;;23.00;28.60;;;;;;4992338;28;20421;-75
2022/05/08 10:04:53;;;;;;;14.87;11.53;;;23.30;28.40;;;;;;4993848;28;20418;-74
2022/05/08 10:07:20;;;;;;;18.00;12.93;;;23.20;27.90;;;;;;4993647;28;20564;-75
2022/05/08 10:15:33;;;;;;;17.07;11.57;;;23.40;26.80;;;;;;4993539;28;20434;-75
2022/05/08 10:18:31;;;;;;;16.50;12.60;;;23.20;26.80;;;;;;4993197;28;20424;-75
2022/05/08 10:21:12;;;;;;;17.80;12.23;;;23.20;28.60;;;;;;4993025;28;20933;-75
2022/05/08 10:23:48;;;;;;;16.70;12.80;;;23.80;28.80;;;;;;4974287;28;20812;-75
2022/05/08 10:26:22;;;;;;;19.07;12.93;;;23.80;27.90;;;;;;4977083;28;20496;-75
2022/05/08 10:29:09;;;;;;;18.13;12.20;;;24.40;26.60;;;;;;4993347;28;20436;-75
2022/05/08 10:31:41;;;;;;;18.53;12.23;;;24.60;25.90;;;;;;4993286;28;20396;-75
2022/05/08 10:34:07;;;;;;;18.73;12.60;;;24.90;26.80;;;;;;4993221;28;20413;-75
2022/05/08 10:36:33;;;;;;;19.30;11.83;;;24.90;25.00;;;;;;4993108;28;20780;-75
2022/05/08 10:39:42;;;;;;;14.10;11.03;;;24.90;25.00;;;;;;4993001;28;20460;-75
2022/05/08 10:42:33;;;;;;;13.60;10.20;;;24.90;26.40;;;;;;4974007;28;20182;-75
2022/05/08 10:45:00;;;;;;;12.80;11.17;;;24.90;25.70;;;;;;4973651;28;20740;-75
2022/05/08 10:50:02;;;;;;;15.77;10.77;;;25.20;25.00;;;;;;4992946;28;20503;-75
2022/05/08 10:52:29;;;;;;;13.83;10.20;;;25.00;25.10;;;;;;4993258;28;20420;-75
2022/05/08 10:55:00;;;;;;;17.63;11.60;;;23.90;26.10;;;;;;4991894;28;20425;-75
2022/05/08 10:57:33;;;;;;;13.17;10.70;;;23.40;28.00;;;;;;4993165;28;20452;-76
2022/05/08 10:59:59;;;;;;;17.27;10.80;;;23.60;26.70;;;;;;4992203;28;20460;-75
2022/05/08 11:02:43;;;;;;;22.03;11.23;;;23.40;26.90;;;;;;4991467;28;20413;-75
2022/05/08 11:05:11;;;;;;;13.90;11.40;;;23.70;26.50;;;;;;4993007;28;20832;-75
2022/05/08 11:07:47;;;;;;;14.93;10.97;;;23.60;27.60;;;;;;4992795;28;20432;-75
2022/05/08 11:10:18;;;;;;;16.00;11.00;;;23.50;27.00;;;;;;4992232;28;20425;-75
2022/05/08 11:12:59;;;;;;;14.73;11.40;;;23.50;27.10;;;;;;4992284;28;20949;-75
2022/05/08 11:15:26;;;;;;;16.30;11.50;;;23.70;27.70;;;;;;4992630;28;20528;-75
2022/05/08 11:18:07;;;;;;;15.03;11.37;;;23.70;27.50;;;;;;4992663;28;20520;-75
2022/05/08 11:20:36;;;;;;;15.90;10.60;;;23.80;27.90;;;;;;4991836;28;20993;-75
2022/05/08 11:23:05;;;;;;;18.80;11.73;;;24.10;27.50;;;;;;4992211;28;20417;-75
2022/05/08 11:25:32;;;;;;;16.07;12.23;;;24.20;27.20;;;;;;4992310;28;20930;-75
2022/05/08 11:27:58;;;;;;;15.43;12.33;;;23.90;27.70;;;;;;4992518;28;20425;-75
2022/05/08 11:30:34;;;;;;;15.13;11.57;;;23.20;27.70;;;;;;4992302;28;20424;-75
2022/05/08 11:36:05;;;;;;;16.10;10.90;;;23.30;27.10;;;;;;4992231;28;20428;-75
2022/05/08 11:38:44;;;;;;;13.50;10.87;;;23.60;28.30;;;;;;4992570;28;20432;-75
2022/05/08 11:41:13;;;;;;;13.83;10.37;;;23.70;27.80;;;;;;4991806;28;20479;-75
2022/05/08 11:43:42;;;;;;;18.83;10.60;;;24.10;26.50;;;;;;4991853;28;20420;-75
2022/05/08 11:46:09;;;;;;;16.60;11.00;;;23.20;28.30;;;;;;4992063;28;20947;-75
2022/05/08 11:48:41;;;;;;;11.23;9.97;;;23.50;28.00;;;;;;4991896;28;20471;-75
2022/05/08 11:51:10;;;;;;;13.40;10.80;;;24.00;27.20;;;;;;4991586;28;20413;-75
2022/05/08 11:53:49;;;;;;;14.57;10.30;;;24.40;27.80;;;;;;4991178;28;20481;-75
2022/05/08 11:56:32;;;;;;;13.23;9.57;;;24.90;26.30;;;;;;4990803;28;20971;-75
2022/05/08 11:59:00;;;;;;;12.50;9.43;;;25.20;25.40;;;;;;4990702;28;20476;-75
2022/05/08 12:01:41;;;;;;;12.97;9.70;;;25.30;26.90;;;;;;4991695;28;20761;-75
2022/05/08 12:04:33;;;;;;;13.63;8.80;;;26.10;26.20;;;;;;4991179;28;20471;-75
2022/05/08 12:07:07;;;;;;;12.10;8.40;;;26.80;23.30;;;;;;4991815;28;20409;-75
2022/05/08 12:09:59;;;;;;;20.63;8.00;;;27.10;20.50;;;;;;4991637;28;20852;-75
2022/05/08 12:12:36;;;;;;;9.63;7.37;;;26.60;24.10;;;;;;4989460;28;20432;-75
2022/05/08 12:15:08;;;;;;;19.30;7.13;;;27.60;21.60;;;;;;4990487;28;20463;-75
2022/05/08 12:17:39;;;;;;;10.77;7.27;;;27.90;21.90;;;;;;4991556;28;20460;-75
2022/05/08 12:20:08;;;;;;;13.40;6.80;;;27.80;20.80;;;;;;4991675;28;20460;-75
2022/05/08 12:22:34;;;;;;;10.27;7.47;;;27.90;20.50;;;;;;4991361;28;20428;-75
2022/05/08 12:25:00;;;;;;;15.23;7.10;;;27.30;21.30;;;;;;4991094;28;20421;-75
2022/05/08 12:27:26;;;;;;;11.70;6.83;;;27.20;22.50;;;;;;4991759;28;20275;-75
2022/05/08 12:29:53;;;;;;;10.20;7.33;;;27.50;21.50;;;;;;4991419;28;20208;-75
2022/05/08 12:32:20;;;;;;;8.83;6.50;;;27.80;21.10;;;;;;4991893;28;20405;-75
2022/05/08 12:34:46;;;;;;;8.00;6.30;;;27.60;21.80;;;;;;4991395;28;20527;-75
2022/05/08 12:37:14;;;;;;;10.70;7.20;;;26.80;20.50;;;;;;4991252;28;20805;-75
2022/05/08 12:39:42;;;;;;;10.17;6.90;;;25.80;22.30;;;;;;4991051;28;20531;-75
2022/05/08 12:42:09;;;;;;;8.97;7.10;;;25.50;24.10;;;;;;4991292;28;20420;-75
2022/05/08 12:44:36;;;;;;;9.90;7.43;;;25.40;23.50;;;;;;4990149;28;20416;-75
2022/05/08 12:47:06;;;;;;;13.50;6.70;;;25.10;24.30;;;;;;4990776;28;20436;-75
2022/05/08 12:49:32;;;;;;;13.70;7.30;;;24.80;22.60;;;;;;4991263;28;20973;-75
2022/05/08 12:51:58;;;;;;;9.13;7.03;;;24.60;22.50;;;;;;4991254;28;20409;-75
2022/05/08 12:54:23;;;;;;;9.33;6.77;;;24.40;23.80;;;;;;4991355;28;20413;-75
2022/05/08 12:56:49;;;;;;;9.60;7.60;;;24.20;22.90;;;;;;4990532;28;20253;-75
2022/05/08 13:01:59;;;;;;;11.17;6.90;;;24.00;22.70;;;;;;4991087;28;20432;-75